Time;durP1;ratioP1;P1;durP2;ratioP2;P2;SDS_P1;SDS_P2;PMS_P1;PMS_P2;Temp;Humidity;BMP_temperature;BMP_pressure;BME280_temperature;BME280_humidity;BME280_pressure;Samples;Min_cycle;Max_cycle;Signal;HPM_P1;HPM_P2
2022/01/13 00:01:42;;;;;;;82.53;28.53;;;;;;;2.04;94.50;103673.25;5116907;28;20185;-71
2022/01/13 00:04:12;;;;;;;77.03;28.73;;;;;;;2.05;94.54;103671.56;5116593;28;20242;-71
2022/01/13 00:06:40;;;;;;;88.83;28.80;;;;;;;2.12;94.39;103676.16;5098057;28;20262;-71
2022/01/13 00:09:07;;;;;;;86.13;30.10;;;;;;;2.04;94.29;103680.13;5116181;28;20234;-71
2022/01/13 00:11:35;;;;;;;90.63;30.30;;;;;;;2.08;94.40;103684.63;5116146;28;20246;-71
2022/01/13 00:19:19;;;;;;;85.13;29.17;;;;;;;2.00;94.56;103688.56;5116269;28;20192;-71
2022/01/13 00:21:59;;;;;;;71.33;29.10;;;;;;;2.00;94.89;103685.97;5116211;28;20647;-71
2022/01/13 00:24:25;;;;;;;94.33;29.37;;;;;;;2.01;94.66;103693.81;5116402;28;20630;-71
2022/01/13 00:26:53;;;;;;;80.40;27.53;;;;;;;2.00;95.04;103683.38;5115877;28;20640;-71
2022/01/13 00:29:29;;;;;;;78.30;27.93;;;;;;;2.03;94.52;103679.25;5116139;28;20174;-71
2022/01/13 00:31:55;;;;;;;92.37;29.87;;;;;;;2.05;94.84;103680.19;5116084;28;20181;-71
2022/01/13 00:34:22;;;;;;;85.07;28.97;;;;;;;2.07;94.47;103675.97;5115729;28;20182;-71
2022/01/13 00:36:48;;;;;;;89.60;29.90;;;;;;;2.05;94.51;103681.88;5116197;28;20205;-71
2022/01/13 00:39:15;;;;;;;88.43;30.37;;;;;;;2.02;94.65;103681.78;5115648;28;20193;-71
2022/01/13 00:41:41;;;;;;;96.23;30.87;;;;;;;2.07;94.45;103683.75;5115574;28;20181;-71
2022/01/13 00:44:08;;;;;;;80.23;29.67;;;;;;;2.01;94.75;103692.94;5116133;28;20207;-71
2022/01/13 00:46:43;;;;;;;89.33;31.00;;;;;;;2.04;94.65;103693.06;5115400;28;20208;-71
2022/01/13 00:49:12;;;;;;;76.50;27.57;;;;;;;2.02;94.83;103699.88;5115757;28;20638;-71
2022/01/13 00:51:41;;;;;;;89.53;29.23;;;;;;;2.01;94.68;103682.59;5115414;28;20189;-71
2022/01/13 00:54:08;;;;;;;82.57;28.93;;;;;;;1.98;94.87;103683.31;5115628;28;20185;-71
2022/01/13 00:56:36;;;;;;;91.93;29.90;;;;;;;1.99;94.62;103684.22;5115214;28;20201;-71
2022/01/13 00:59:07;;;;;;;100.93;29.77;;;;;;;2.02;94.55;103689.53;5115273;28;20662;-71
2022/01/13 01:01:36;;;;;;;73.30;27.13;;;;;;;2.00;94.71;103691.13;5115270;28;20223;-71
2022/01/13 01:04:04;;;;;;;78.13;25.40;;;;;;;1.99;94.66;103691.97;5115192;28;20267;-71
2022/01/13 01:06:32;;;;;;;76.73;26.97;;;;;;;2.10;94.32;103693.31;5115268;28;20205;-71
2022/01/13 01:08:59;;;;;;;83.27;27.40;;;;;;;1.99;94.81;103694.53;5115003;28;20201;-71
2022/01/13 01:11:26;;;;;;;64.77;24.37;;;;;;;2.15;94.29;103686.63;5115576;28;20233;-71
2022/01/13 01:13:55;;;;;;;74.03;27.33;;;;;;;2.10;94.57;103694.19;5115803;28;20193;-71
2022/01/13 01:16:23;;;;;;;81.80;27.30;;;;;;;2.11;94.59;103689.91;5115099;28;20209;-72
2022/01/13 01:19:03;;;;;;;74.93;28.63;;;;;;;2.16;94.58;103697.03;5115081;28;20189;-71
2022/01/13 01:24:16;;;;;;;66.10;23.77;;;;;;;2.28;93.72;103688.88;5115063;28;20196;-71
2022/01/13 01:26:47;;;;;;;79.87;26.47;;;;;;;2.16;93.92;103706.50;5114831;28;20213;-72
2022/01/13 01:29:30;;;;;;;68.27;25.30;;;;;;;2.17;93.84;103701.38;5114595;28;20204;-72
2022/01/13 01:31:57;;;;;;;94.43;27.30;;;;;;;2.08;94.28;103700.13;5096895;28;20192;-72
2022/01/13 01:37:01;;;;;;;65.63;24.83;;;;;;;2.05;94.39;103699.97;5115069;28;20197;-72
2022/01/13 01:39:28;;;;;;;81.33;25.40;;;;;;;2.10;94.28;103704.53;5114698;28;20193;-71
2022/01/13 01:41:56;;;;;;;79.23;26.90;;;;;;;2.03;94.60;103699.03;5114731;28;20664;-71
2022/01/13 01:44:39;;;;;;;79.47;26.03;;;;;;;2.07;94.36;103681.16;5114402;28;20555;-71
2022/01/13 01:47:08;;;;;;;87.03;25.70;;;;;;;2.03;94.57;103696.47;5114343;28;20224;-71
2022/01/13 01:49:39;;;;;;;70.93;25.63;;;;;;;2.01;94.46;103698.09;5113652;28;20738;-71
2022/01/13 01:52:07;;;;;;;78.33;24.83;;;;;;;2.08;94.63;103700.13;5114623;28;20172;-71
2022/01/13 01:54:34;;;;;;;82.63;27.43;;;;;;;2.08;94.38;103703.59;5114214;28;20197;-70
2022/01/13 01:57:01;;;;;;;84.37;26.53;;;;;;;2.13;94.23;103711.50;5114687;28;20261;-71
2022/01/13 01:59:31;;;;;;;70.27;26.17;;;;;;;2.16;94.35;103712.53;5114664;28;20205;-71
2022/01/13 02:01:59;;;;;;;80.10;26.27;;;;;;;2.23;93.75;103711.09;5114097;28;20759;-71
2022/01/13 02:04:26;;;;;;;86.87;25.87;;;;;;;2.17;94.15;103716.00;5114057;28;20189;-71
2022/01/13 02:06:55;;;;;;;65.63;25.33;;;;;;;2.10;94.12;103712.28;5114033;28;20205;-71
2022/01/13 02:09:22;;;;;;;81.50;26.13;;;;;;;2.19;93.80;103704.03;5113957;28;20205;-71
2022/01/13 02:11:56;;;;;;;81.73;27.23;;;;;;;2.11;93.92;103710.56;5114504;28;20185;-71
2022/01/13 02:17:09;;;;;;;69.30;24.27;;;;;;;2.16;93.84;103702.19;5114130;28;20213;-72
2022/01/13 02:19:39;;;;;;;77.33;25.57;;;;;;;2.22;94.10;103699.00;5114256;28;20576;-71
2022/01/13 02:22:06;;;;;;;86.27;25.73;;;;;;;2.27;93.65;103700.03;5114115;28;20181;-71
2022/01/13 02:24:34;;;;;;;83.97;25.47;;;;;;;2.18;93.68;103703.13;5114060;28;20200;-71
2022/01/13 02:27:02;;;;;;;90.83;25.20;;;;;;;2.18;94.12;103697.97;5095489;28;20209;-72
2022/01/13 02:29:29;;;;;;;69.87;25.03;;;;;;;2.23;93.83;103695.59;5113647;28;20200;-71
2022/01/13 02:31:56;;;;;;;65.43;22.27;;;;;;;2.22;93.45;103698.13;5114024;28;20281;-71
2022/01/13 02:34:23;;;;;;;73.67;23.37;;;;;;;2.14;93.63;103690.00;5113688;28;20738;-71
2022/01/13 02:36:53;;;;;;;70.80;23.33;;;;;;;2.18;93.59;103689.34;5114156;28;20605;-72
2022/01/13 02:39:24;;;;;;;63.80;23.13;;;;;;;2.19;93.74;103688.50;5113943;28;20174;-72
2022/01/13 02:41:50;;;;;;;77.40;24.87;;;;;;;2.14;93.58;103692.59;5114246;28;20181;-72
2022/01/13 02:44:21;;;;;;;60.97;23.27;;;;;;;2.16;93.46;103686.69;5113586;28;20185;-71
2022/01/13 02:49:18;;;;;;;79.23;25.27;;;;;;;2.17;93.44;103683.28;5113441;28;20201;-71
2022/01/13 02:51:47;;;;;;;84.67;25.23;;;;;;;2.22;93.50;103680.91;5113554;28;20193;-71
2022/01/13 02:54:14;;;;;;;77.60;24.37;;;;;;;2.19;93.46;103683.34;5113806;28;20191;-71
2022/01/13 02:56:42;;;;;;;74.50;24.83;;;;;;;2.19;93.70;103688.50;5113733;28;20216;-72
2022/01/13 02:59:09;;;;;;;82.77;24.60;;;;;;;2.18;93.50;103684.16;5113472;28;20185;-71
2022/01/13 03:01:36;;;;;;;76.57;26.30;;;;;;;2.14;93.71;103695.19;5115882;28;20189;-71
2022/01/13 03:04:06;;;;;;;66.30;23.17;;;;;;;2.16;93.89;103683.22;5117506;28;20186;-71
2022/01/13 03:06:36;;;;;;;82.40;25.20;;;;;;;2.13;94.00;103685.66;5117401;28;20208;-71
2022/01/13 03:09:13;;;;;;;76.33;25.30;;;;;;;2.14;94.11;103679.69;5117330;28;20246;-71
2022/01/13 03:11:41;;;;;;;79.47;25.63;;;;;;;2.19;93.86;103668.72;5117981;28;20177;-71
2022/01/13 03:14:10;;;;;;;78.83;25.73;;;;;;;2.24;94.22;103668.91;5117591;28;20246;-71
2022/01/13 03:16:38;;;;;;;75.40;25.33;;;;;;;2.30;93.78;103668.28;5117190;28;20209;-72
2022/01/13 03:19:05;;;;;;;81.33;25.40;;;;;;;2.37;93.67;103672.88;5117484;28;20242;-71
2022/01/13 03:21:31;;;;;;;70.97;27.00;;;;;;;2.37;93.42;103671.19;5117313;28;20185;-71
2022/01/13 03:23:58;;;;;;;75.07;26.43;;;;;;;2.28;93.40;103669.91;5117409;28;20238;-71
2022/01/13 03:26:25;;;;;;;69.57;25.03;;;;;;;2.21;93.55;103666.19;5098900;28;20217;-72
2022/01/13 03:28:54;;;;;;;79.50;24.20;;;;;;;2.20;93.74;103672.19;5116950;28;20205;-71
2022/01/13 03:31:23;;;;;;;83.97;24.23;;;;;;;2.13;93.97;103671.03;5117324;28;20189;-71
2022/01/13 03:33:51;;;;;;;83.30;26.43;;;;;;;2.14;94.34;103678.00;5117225;28;20268;-71
2022/01/13 03:36:18;;;;;;;79.77;25.83;;;;;;;2.23;94.10;103674.91;5116834;28;20205;-72
2022/01/13 03:38:44;;;;;;;75.77;26.00;;;;;;;2.26;93.97;103677.59;5098816;28;20181;-71
2022/01/13 03:41:12;;;;;;;77.87;25.87;;;;;;;2.31;94.13;103680.38;5116817;28;20194;-71
2022/01/13 03:43:39;;;;;;;98.03;27.43;;;;;;;2.35;93.45;103680.56;5116717;28;20193;-71
2022/01/13 03:46:07;;;;;;;105.60;31.83;;;;;;;2.15;93.88;103682.34;5116636;28;20224;-72
2022/01/13 03:48:38;;;;;;;89.83;28.00;;;;;;;2.14;93.93;103683.16;5116929;28;20254;-71
2022/01/13 03:51:04;;;;;;;90.17;27.43;;;;;;;2.23;93.87;103680.06;5116649;28;20197;-71
2022/01/13 03:53:31;;;;;;;88.40;28.23;;;;;;;2.19;93.72;103673.00;5116579;28;20197;-71
2022/01/13 03:56:51;;;;;;;75.27;27.07;;;;;;;2.22;93.91;103675.72;5116440;28;20201;-72
2022/01/13 03:59:46;;;;;;;85.67;27.00;;;;;;;2.22;93.96;103678.31;5116650;28;20234;-71
2022/01/13 04:02:14;;;;;;;102.17;28.57;;;;;;;2.22;94.05;103665.41;5098493;28;20201;-71
2022/01/13 04:04:47;;;;;;;87.67;26.63;;;;;;;2.19;94.08;103667.84;5116327;28;20655;-71
2022/01/13 04:07:18;;;;;;;89.43;28.17;;;;;;;2.16;94.15;103657.38;5116255;28;20609;-72
2022/01/13 04:09:44;;;;;;;86.23;28.73;;;;;;;2.28;94.07;103655.28;5116454;28;20253;-71
2022/01/13 04:12:13;;;;;;;108.03;29.70;;;;;;;2.24;93.96;103648.22;5115683;28;20177;-71
2022/01/13 04:14:58;;;;;;;98.37;29.17;;;;;;;2.08;94.15;103645.84;5099068;28;20185;-71
2022/01/13 04:17:27;;;;;;;92.83;28.47;;;;;;;2.25;93.57;103642.25;5116045;28;20209;-72
2022/01/13 04:19:54;;;;;;;98.37;31.27;;;;;;;2.10;94.12;103644.22;5115941;28;20196;-71
2022/01/13 04:22:20;;;;;;;91.00;29.00;;;;;;;2.10;94.25;103646.78;5116335;28;20174;-71
2022/01/13 04:24:51;;;;;;;86.00;28.40;;;;;;;2.08;94.19;103657.06;5098441;28;20189;-71
2022/01/13 04:27:24;;;;;;;75.00;27.33;;;;;;;2.06;94.71;103652.63;5115851;28;20197;-71
2022/01/13 04:32:37;;;;;;;94.87;30.23;;;;;;;2.17;94.44;103659.16;5116358;28;20177;-71
2022/01/13 04:35:09;;;;;;;95.10;27.67;;;;;;;2.27;94.15;103656.09;5116063;28;20272;-71
2022/01/13 04:37:35;;;;;;;89.03;26.37;;;;;;;2.17;94.22;103653.97;5115600;28;20219;-71
2022/01/13 04:40:03;;;;;;;106.40;27.93;;;;;;;2.18;94.18;103646.28;5115607;28;20186;-71
2022/01/13 04:42:35;;;;;;;90.60;28.80;;;;;;;2.14;94.02;103647.00;5115527;28;20186;-71
2022/01/13 04:45:05;;;;;;;85.43;28.57;;;;;;;2.23;94.14;103641.31;5116104;28;20186;-71
2022/01/13 04:47:32;;;;;;;84.13;27.27;;;;;;;2.16;94.24;103641.88;5115424;28;20581;-71
2022/01/13 04:49:58;;;;;;;91.63;29.60;;;;;;;2.15;94.00;103642.69;5115600;28;20201;-71
2022/01/13 04:52:25;;;;;;;95.50;29.90;;;;;;;2.21;93.88;103632.59;5115667;28;20222;-71
2022/01/13 04:54:52;;;;;;;97.97;28.60;;;;;;;2.08;94.32;103623.47;5115985;28;20181;-71
2022/01/13 04:57:18;;;;;;;93.00;28.60;;;;;;;2.06;94.53;103621.63;5115176;28;20221;-71
2022/01/13 04:59:45;;;;;;;91.37;28.07;;;;;;;2.09;94.21;103624.34;5115848;28;20162;-71
2022/01/13 05:02:14;;;;;;;98.53;29.93;;;;;;;2.10;93.96;103626.13;5115877;28;20181;-71
2022/01/13 05:04:40;;;;;;;99.40;31.10;;;;;;;1.96;94.50;103627.25;5097928;28;20190;-71
2022/01/13 05:07:07;;;;;;;96.70;29.60;;;;;;;1.97;94.65;103629.00;5115489;28;20262;-72
2022/01/13 05:09:33;;;;;;;85.93;27.73;;;;;;;1.99;94.44;103633.41;5114931;28;20575;-72
2022/01/13 05:12:01;;;;;;;94.20;29.50;;;;;;;1.79;95.05;103630.03;5115604;28;20177;-72
2022/01/13 05:14:30;;;;;;;77.87;29.53;;;;;;;1.69;95.64;103643.34;5115503;28;20607;-71
2022/01/13 05:17:04;;;;;;;76.10;26.57;;;;;;;1.59;95.99;103648.97;5114862;28;20204;-70
2022/01/13 05:19:39;;;;;;;83.00;28.63;;;;;;;1.62;96.07;103646.50;5114981;28;20168;-71
2022/01/13 05:22:15;;;;;;;96.83;28.97;;;;;;;1.48;96.47;103645.03;5115141;28;20173;-71
2022/01/13 05:24:45;;;;;;;89.03;28.33;;;;;;;1.45;96.72;103645.78;5114131;28;20528;-70
2022/01/13 05:27:13;;;;;;;75.90;26.43;;;;;;;1.47;96.78;103653.59;5096588;28;20209;-71
2022/01/13 05:29:40;;;;;;;80.97;28.10;;;;;;;1.41;96.81;103640.41;5115126;28;20194;-70
2022/01/13 05:32:06;;;;;;;85.83;29.07;;;;;;;1.38;96.99;103630.84;5114904;28;20189;-70
2022/01/13 05:34:33;;;;;;;78.80;27.57;;;;;;;1.41;96.94;103628.38;5114909;28;20561;-70
2022/01/13 05:37:09;;;;;;;76.73;25.70;;;;;;;1.52;96.97;103628.84;5114529;28;20210;-71
2022/01/13 05:39:36;;;;;;;81.50;28.57;;;;;;;1.47;96.92;103626.06;5114481;28;20557;-71
2022/01/13 05:42:03;;;;;;;89.00;28.63;;;;;;;1.48;96.97;103616.63;5114720;28;20180;-70
2022/01/13 05:44:36;;;;;;;85.03;28.63;;;;;;;1.45;97.08;103625.13;5114801;28;20196;-71
2022/01/13 05:47:03;;;;;;;101.73;31.27;;;;;;;1.45;97.24;103621.66;5114590;28;20217;-71
2022/01/13 05:49:30;;;;;;;97.03;30.20;;;;;;;1.41;97.16;103614.59;5114213;28;20193;-71
2022/01/13 05:51:56;;;;;;;96.37;30.50;;;;;;;1.42;97.34;103616.34;5115037;28;20193;-71
2022/01/13 05:54:23;;;;;;;81.63;28.90;;;;;;;1.34;97.66;103616.03;5114479;28;20249;-71
2022/01/13 05:56:49;;;;;;;101.77;28.73;;;;;;;1.32;97.43;103615.97;5114293;28;20201;-71
2022/01/13 05:59:16;;;;;;;104.60;31.23;;;;;;;1.28;97.50;103619.22;5114391;28;20192;-71
2022/01/13 06:01:42;;;;;;;77.73;29.67;;;;;;;1.25;97.75;103616.50;5114115;28;20185;-71
2022/01/13 06:04:14;;;;;;;82.93;27.27;;;;;;;1.20;98.02;103615.41;5114592;28;20246;-71
2022/01/13 06:06:41;;;;;;;92.93;29.77;;;;;;;1.20;98.30;103615.41;5113939;28;20212;-71
2022/01/13 06:09:07;;;;;;;87.27;29.57;;;;;;;1.21;98.06;103629.19;5114140;28;20214;-71
2022/01/13 06:11:39;;;;;;;94.63;30.27;;;;;;;1.18;98.21;103631.66;5114213;28;20670;-71
2022/01/13 06:14:06;;;;;;;114.03;30.63;;;;;;;1.15;98.18;103627.25;5113954;28;20187;-71
2022/01/13 06:16:33;;;;;;;72.50;27.63;;;;;;;1.21;98.00;103629.19;5114286;28;20201;-71
2022/01/13 06:19:00;;;;;;;101.33;30.90;;;;;;;1.21;97.85;103627.50;5114405;28;20234;-71
2022/01/13 06:21:26;;;;;;;108.23;29.07;;;;;;;1.21;98.27;103627.50;5113982;28;20192;-71
2022/01/13 06:23:53;;;;;;;93.13;29.97;;;;;;;1.25;97.86;103629.41;5114348;28;20248;-70
2022/01/13 06:26:20;;;;;;;92.30;29.70;;;;;;;1.26;97.98;103631.19;5113953;28;20682;-72
2022/01/13 06:28:46;;;;;;;113.57;32.93;;;;;;;1.15;98.09;103619.50;5113815;28;20578;-71
2022/01/13 06:31:13;;;;;;;96.03;30.63;;;;;;;1.17;98.35;103623.03;5113823;28;20184;-71
2022/01/13 06:33:39;;;;;;;81.37;29.07;;;;;;;1.29;98.22;103615.84;5113550;28;20201;-71
2022/01/13 06:36:06;;;;;;;95.40;29.97;;;;;;;1.20;98.23;103612.84;5116419;28;20213;-71
2022/01/13 06:38:32;;;;;;;89.67;30.60;;;;;;;1.21;98.55;103616.28;5120624;28;20188;-71
2022/01/13 06:41:01;;;;;;;103.67;32.17;;;;;;;1.28;98.06;103619.22;5121051;28;20588;-71
2022/01/13 06:43:28;;;;;;;102.00;31.00;;;;;;;1.35;97.97;103626.41;5120456;28;20219;-71
2022/01/13 06:45:55;;;;;;;89.77;28.83;;;;;;;1.43;98.08;103623.28;5120850;28;20230;-71
2022/01/13 06:48:22;;;;;;;80.53;29.10;;;;;;;1.45;98.11;103625.13;5120309;28;20197;-71
2022/01/13 06:50:49;;;;;;;102.30;28.77;;;;;;;1.41;97.94;103625.78;5120346;28;20189;-71
2022/01/13 06:53:15;;;;;;;95.63;30.90;;;;;;;1.42;97.84;103624.97;5120849;28;20208;-71
2022/01/13 06:55:42;;;;;;;106.13;31.60;;;;;;;1.43;97.32;103624.19;5120556;28;20545;-72
2022/01/13 06:58:08;;;;;;;104.43;32.00;;;;;;;1.27;97.70;103622.63;5120323;28;20185;-71
2022/01/13 07:00:35;;;;;;;115.37;31.90;;;;;;;1.21;98.13;103622.34;5120209;28;20195;-71
2022/01/13 07:03:03;;;;;;;103.40;30.43;;;;;;;1.17;98.10;103623.03;5120262;28;20185;-71
2022/01/13 07:05:30;;;;;;;91.50;30.67;;;;;;;1.09;98.51;103620.13;5120254;28;20210;-70
2022/01/13 07:07:57;;;;;;;106.07;30.80;;;;;;;1.04;98.80;103620.72;5120024;28;20215;-71
2022/01/13 07:10:23;;;;;;;113.70;31.80;;;;;;;1.04;99.20;103620.72;5120612;28;20204;-71
2022/01/13 07:12:50;;;;;;;104.57;29.50;;;;;;;0.98;99.35;103625.59;5120748;28;20188;-71
2022/01/13 07:15:16;;;;;;;105.00;30.50;;;;;;;0.99;99.74;103630.81;5120672;28;20237;-71
2022/01/13 07:17:43;;;;;;;111.17;33.33;;;;;;;0.97;99.48;103627.31;5120306;28;20213;-71
2022/01/13 07:20:10;;;;;;;120.83;33.47;;;;;;;0.97;99.82;103629.00;5119946;28;20597;-71
2022/01/13 07:22:38;;;;;;;128.87;35.33;;;;;;;0.92;99.97;103622.75;5120383;28;20191;-71
2022/01/13 07:25:06;;;;;;;114.30;32.93;;;;;;;0.99;99.79;103630.81;5120479;28;20661;-71
2022/01/13 07:27:37;;;;;;;108.27;34.57;;;;;;;1.00;99.56;103636.88;5119984;28;20245;-71
2022/01/13 07:30:04;;;;;;;127.03;32.67;;;;;;;0.99;99.60;103640.25;5119775;28;20208;-70
2022/01/13 07:32:31;;;;;;;123.70;32.43;;;;;;;0.91;99.25;103646.78;5120425;28;20179;-70
2022/01/13 07:34:57;;;;;;;95.67;28.93;;;;;;;0.90;99.53;103656.22;5120255;28;20635;-70
2022/01/13 07:37:24;;;;;;;121.77;32.03;;;;;;;0.87;99.96;103650.03;5120442;28;20539;-71
2022/01/13 07:39:51;;;;;;;127.50;34.70;;;;;;;0.77;100.00;103644.44;5120447;28;20188;-70
2022/01/13 07:42:17;;;;;;;116.50;31.73;;;;;;;0.92;100.00;103645.94;5120078;28;20191;-70
2022/01/13 07:44:44;;;;;;;124.63;32.07;;;;;;;0.91;100.00;103646.78;5119802;28;20187;-70
2022/01/13 07:47:10;;;;;;;116.83;33.10;;;;;;;0.98;100.00;103648.81;5118100;28;20199;-71
2022/01/13 07:49:37;;;;;;;107.87;32.40;;;;;;;0.90;100.00;103642.44;5098350;28;20250;-70
2022/01/13 07:52:04;;;;;;;115.83;31.73;;;;;;;1.19;100.00;103652.38;5116834;28;20196;-70
2022/01/13 07:54:31;;;;;;;112.83;31.57;;;;;;;1.17;100.00;103655.69;5098267;28;20203;-70
2022/01/13 07:57:00;;;;;;;101.13;32.67;;;;;;;1.16;99.98;103653.94;5116920;28;20622;-71
2022/01/13 07:59:29;;;;;;;98.47;30.33;;;;;;;1.17;99.71;103654.00;5116781;28;20183;-70
2022/01/13 08:01:56;;;;;;;113.90;31.90;;;;;;;1.20;99.63;103653.25;5116692;28;20573;-71
2022/01/13 08:04:23;;;;;;;100.67;30.93;;;;;;;1.22;99.66;103649.94;5116294;28;20192;-71
2022/01/13 08:06:50;;;;;;;105.00;30.13;;;;;;;1.27;99.55;103656.16;5116364;28;20211;-70
2022/01/13 08:09:21;;;;;;;129.17;29.13;;;;;;;1.24;99.25;103656.03;5116450;28;20198;-70
2022/01/13 08:11:47;;;;;;;122.33;33.13;;;;;;;1.18;99.48;103653.19;5116161;28;20647;-70
2022/01/13 08:14:14;;;;;;;101.90;30.03;;;;;;;1.17;99.73;103661.75;5116439;28;20592;-70
2022/01/13 08:16:43;;;;;;;114.37;32.27;;;;;;;1.27;99.75;103656.16;5115992;28;20204;-71
2022/01/13 08:21:55;;;;;;;115.30;32.87;;;;;;;1.31;98.94;103665.81;5116558;28;20177;-70
2022/01/13 08:24:22;;;;;;;120.47;32.60;;;;;;;1.30;99.14;103669.22;5115932;28;20189;-70
2022/01/13 08:26:48;;;;;;;143.93;31.77;;;;;;;1.32;99.14;103672.75;5115747;28;20705;-71
2022/01/13 08:29:15;;;;;;;109.97;30.93;;;;;;;1.33;98.94;103664.19;5115827;28;20213;-71
2022/01/13 08:31:41;;;;;;;97.03;31.03;;;;;;;1.38;98.61;103662.69;5115817;28;20192;-71
2022/01/13 08:34:08;;;;;;;113.23;31.53;;;;;;;1.40;98.79;103667.03;5116023;28;20550;-71
2022/01/13 08:36:35;;;;;;;120.27;31.33;;;;;;;1.46;98.58;103670.78;5115673;28;20574;-71
2022/01/13 08:39:02;;;;;;;104.43;29.73;;;;;;;1.41;98.39;103673.97;5115558;28;20256;-71
2022/01/13 08:41:28;;;;;;;117.57;30.83;;;;;;;1.43;98.57;103683.56;5115853;28;20584;-70
2022/01/13 08:43:55;;;;;;;107.77;32.10;;;;;;;1.29;98.17;103680.38;5115572;28;20186;-71
2022/01/13 08:46:23;;;;;;;116.70;31.23;;;;;;;1.08;99.01;103677.69;5115469;28;20296;-71
2022/01/13 08:48:52;;;;;;;123.07;32.03;;;;;;;1.09;99.34;103676.88;5115336;28;20190;-71
2022/01/13 08:51:18;;;;;;;122.80;32.60;;;;;;;1.07;99.46;103680.19;5115611;28;20759;-70
2022/01/13 08:53:46;;;;;;;114.60;32.50;;;;;;;1.11;99.08;103679.53;5115299;28;20179;-70
2022/01/13 08:56:14;;;;;;;116.70;31.70;;;;;;;1.08;99.25;103674.25;5115295;28;20616;-71
2022/01/13 08:58:43;;;;;;;101.57;30.60;;;;;;;1.09;99.48;103678.59;5115079;28;20192;-71
2022/01/13 09:01:09;;;;;;;108.83;31.30;;;;;;;0.99;99.15;103681.53;5115174;28;20189;-70
2022/01/13 09:03:36;;;;;;;107.03;30.00;;;;;;;0.96;99.69;103682.28;5115473;28;20215;-70
2022/01/13 09:06:03;;;;;;;112.17;31.63;;;;;;;1.00;99.51;103689.38;5115564;28;20208;-71
2022/01/13 09:08:34;;;;;;;114.97;31.03;;;;;;;1.03;99.38;103684.34;5115605;28;20664;-71
2022/01/13 09:11:01;;;;;;;113.27;30.33;;;;;;;1.06;99.39;103692.19;5115445;28;20211;-70
2022/01/13 09:13:27;;;;;;;136.17;32.57;;;;;;;1.03;99.34;103694.66;5114971;28;20198;-70
2022/01/13 09:16:00;;;;;;;106.17;30.03;;;;;;;1.12;99.42;103701.03;5114842;28;20260;-70
2022/01/13 09:19:12;;;;;;;108.97;30.60;;;;;;;1.11;99.30;103707.91;5114902;28;20211;-70
2022/01/13 09:21:17;;;;;;;99.20;30.70;;;;;;;1.00;99.41;103703.94;5106557;28;20220;-70
2022/01/13 09:23:44;;;;;;;106.27;29.43;;;;;;;1.04;99.47;103706.75;5114910;28;20186;-70
2022/01/13 09:26:10;;;;;;;142.40;36.37;;;;;;;1.02;99.24;103710.06;5114453;28;20216;-70
2022/01/13 09:28:37;;;;;;;127.60;35.60;;;;;;;0.97;99.68;103716.69;5114655;28;20192;-70
2022/01/13 09:31:04;;;;;;;141.03;37.83;;;;;;;0.99;99.65;103708.22;5115097;28;20204;-70
2022/01/13 09:33:31;;;;;;;152.50;40.47;;;;;;;1.06;99.68;103704.22;5115089;28;20234;-70
2022/01/13 09:35:58;;;;;;;173.53;44.30;;;;;;;1.03;99.57;103709.25;5114510;28;20620;-71
2022/01/13 09:38:25;;;;;;;152.97;43.73;;;;;;;1.13;99.36;103710.53;5114619;28;20188;-70
2022/01/13 09:40:52;;;;;;;143.03;43.77;;;;;;;1.12;99.56;103704.50;5114408;28;20192;-70
2022/01/13 09:43:26;;;;;;;133.50;40.03;;;;;;;1.13;99.48;103707.97;5114951;28;20173;-71
2022/01/13 09:45:55;;;;;;;131.70;39.20;;;;;;;1.19;99.32;103700.50;5114240;28;20186;-71
2022/01/13 09:48:21;;;;;;;152.80;46.97;;;;;;;1.26;99.25;103698.28;5114346;28;20181;-70
2022/01/13 09:50:48;;;;;;;169.07;45.60;;;;;;;1.15;99.55;103693.47;5114458;28;20205;-70
2022/01/13 09:53:16;;;;;;;138.73;40.37;;;;;;;1.13;99.68;103695.94;5114827;28;20512;-70
2022/01/13 09:55:45;;;;;;;153.73;43.00;;;;;;;1.12;99.83;103708.78;5114334;28;20215;-71
2022/01/13 09:58:14;;;;;;;145.63;40.47;;;;;;;1.21;99.87;103702.34;5114428;28;20173;-70
2022/01/13 10:00:43;;;;;;;147.57;42.57;;;;;;;1.18;100.00;103699.63;5114355;28;20260;-70
2022/01/13 10:03:23;;;;;;;156.40;43.40;;;;;;;1.20;99.96;103708.31;5114054;28;20260;-70
2022/01/13 10:06:01;;;;;;;129.37;39.00;;;;;;;1.26;99.83;103716.34;5114263;28;20510;-71
2022/01/13 10:08:47;;;;;;;138.60;40.00;;;;;;;1.28;99.85;103708.66;5114249;28;20700;-71
2022/01/13 10:11:28;;;;;;;139.70;39.27;;;;;;;1.30;100.00;103702.78;5113890;28;20215;-71
2022/01/13 10:17:07;;;;;;;139.60;40.13;;;;;;;1.30;100.00;103718.25;5113860;28;20693;-71
2022/01/13 10:19:44;;;;;;;120.27;38.60;;;;;;;1.29;100.00;103708.75;5114204;28;20180;-70
2022/01/13 10:22:24;;;;;;;143.00;41.87;;;;;;;1.31;100.00;103712.28;5114141;28;20258;-70
2022/01/13 10:24:53;;;;;;;143.63;38.00;;;;;;;1.32;99.87;103719.22;5114345;28;20173;-70
2022/01/13 10:27:32;;;;;;;133.87;40.03;;;;;;;1.45;99.80;103714.59;5113915;28;20211;-71
2022/01/13 10:30:00;;;;;;;148.80;40.40;;;;;;;1.54;99.48;103713.31;5113669;28;20620;-70
2022/01/13 10:32:36;;;;;;;133.73;40.17;;;;;;;1.68;99.66;103710.44;5113659;28;20182;-70
2022/01/13 10:35:10;;;;;;;166.20;44.83;;;;;;;1.69;99.28;103705.34;5113980;28;20175;-70
2022/01/13 10:37:39;;;;;;;146.10;41.80;;;;;;;1.77;99.34;103703.97;5114108;28;20569;-70
2022/01/13 10:40:13;;;;;;;136.60;42.47;;;;;;;1.91;99.11;103696.81;5095467;28;20189;-70
2022/01/13 10:43:06;;;;;;;125.60;35.53;;;;;;;2.00;98.90;103694.63;5114168;28;20626;-70
2022/01/13 10:45:35;;;;;;;133.43;36.60;;;;;;;1.87;98.21;103694.94;5113755;28;20550;-70
2022/01/13 10:48:16;;;;;;;112.60;35.27;;;;;;;1.92;98.19;103694.28;5113535;28;20231;-71
2022/01/13 10:50:53;;;;;;;117.47;35.30;;;;;;;2.03;98.19;103686.13;5113490;28;20200;-71
2022/01/13 10:53:46;;;;;;;157.03;40.20;;;;;;;2.00;97.63;103696.31;5113692;28;20257;-71
2022/01/13 10:56:18;;;;;;;135.30;40.47;;;;;;;2.04;97.36;103690.47;5109539;28;20225;-71
2022/01/13 10:58:53;;;;;;;134.73;38.47;;;;;;;1.90;97.40;103689.88;5113532;28;20174;-71
2022/01/13 11:01:21;;;;;;;130.57;37.97;;;;;;;1.93;97.41;103692.63;5114045;28;20169;-71
2022/01/13 11:03:48;;;;;;;129.93;38.80;;;;;;;1.91;97.42;103689.06;5113378;28;20189;-71
2022/01/13 11:06:15;;;;;;;143.80;39.33;;;;;;;1.82;97.60;103684.38;5113419;28;20575;-71
2022/01/13 11:08:44;;;;;;;142.83;40.07;;;;;;;1.74;97.43;103683.19;5113672;28;20655;-71
2022/01/13 11:11:25;;;;;;;146.73;38.57;;;;;;;1.74;97.48;103688.34;5113333;28;20197;-71
2022/01/13 11:13:58;;;;;;;139.90;37.53;;;;;;;1.80;97.70;103687.75;5113609;28;20181;-71
2022/01/13 11:16:24;;;;;;;122.00;35.67;;;;;;;1.79;97.89;103689.44;5113319;28;20223;-71
2022/01/13 11:18:52;;;;;;;128.67;34.33;;;;;;;1.80;98.11;103680.00;5113269;28;20181;-71
2022/01/13 11:21:18;;;;;;;134.20;36.73;;;;;;;1.87;97.80;103662.22;5095171;28;20193;-71
2022/01/13 11:23:49;;;;;;;122.20;34.80;;;;;;;1.90;97.78;103654.59;5115870;28;20189;-71
2022/01/13 11:26:16;;;;;;;103.10;33.47;;;;;;;2.08;97.35;103663.94;5117580;28;20201;-71
2022/01/13 11:28:43;;;;;;;99.43;31.33;;;;;;;2.08;97.14;103661.38;5117638;28;20647;-71
2022/01/13 11:31:11;;;;;;;118.90;33.57;;;;;;;2.14;97.32;103649.56;5116830;28;20201;-71
2022/01/13 11:33:38;;;;;;;114.57;34.10;;;;;;;2.16;97.14;103647.94;5117144;28;20193;-70
2022/01/13 11:36:09;;;;;;;114.13;34.90;;;;;;;2.19;96.90;103644.56;5116633;28;20216;-71
2022/01/13 11:38:35;;;;;;;98.40;31.17;;;;;;;2.20;96.89;103642.03;5117208;28;20178;-71
2022/01/13 11:41:09;;;;;;;107.10;34.63;;;;;;;2.22;96.67;103639.53;5117018;28;20639;-71
2022/01/13 11:43:40;;;;;;;106.60;33.87;;;;;;;2.37;96.82;103631.53;5116733;28;20189;-70
2022/01/13 11:46:15;;;;;;;102.50;34.00;;;;;;;2.40;96.32;103622.16;5117094;28;20574;-71
2022/01/13 11:49:02;;;;;;;108.10;33.50;;;;;;;2.55;95.72;103623.56;5116667;28;20519;-71